Time;durP1;ratioP1;P1;durP2;ratioP2;P2;SDS_P1;SDS_P2;PMS_P1;PMS_P2;Temp;Humidity;BMP_temperature;BMP_pressure;BME280_temperature;BME280_humidity;BME280_pressure;Samples;Min_cycle;Max_cycle;Signal;HPM_P1;HPM_P2
2022/05/14 00:01:33;;;;;;;4.03;1.52;;;9.00;99.90;10.80;97533.00;;;;5021084;28;82606;-60
2022/05/14 00:04:00;;;;;;;7.28;2.10;;;9.00;99.90;10.80;97530.00;;;;5025282;28;82428;-60
2022/05/14 00:06:28;;;;;;;6.25;1.70;;;9.00;99.90;10.80;97530.00;;;;5024714;28;82435;-60
2022/05/14 00:08:55;;;;;;;7.18;1.88;;;9.00;99.90;10.80;97536.00;;;;5025212;28;82248;-59
2022/05/14 00:14:09;;;;;;;7.57;1.80;;;9.00;99.90;10.70;97535.00;;;;5026175;28;81928;-59
2022/05/14 00:16:36;;;;;;;4.35;1.98;;;8.90;99.90;10.70;97530.00;;;;5024659;28;82951;-60
2022/05/14 00:19:05;;;;;;;4.75;1.92;;;8.90;99.90;10.60;97526.00;;;;5025134;28;82854;-62
2022/05/14 00:21:32;;;;;;;6.53;2.25;;;8.90;99.90;10.60;97543.00;;;;5024072;28;83557;-62
2022/05/14 00:23:59;;;;;;;6.05;1.65;;;8.80;99.90;10.60;97536.00;;;;5025055;28;83981;-61
2022/05/14 00:26:26;;;;;;;6.90;2.33;;;8.80;99.90;10.60;97536.00;;;;5025502;28;83145;-62
2022/05/14 00:28:52;;;;;;;4.75;1.70;;;8.80;99.90;10.50;97533.00;;;;5025447;28;82006;-63
2022/05/14 00:31:19;;;;;;;7.05;2.35;;;8.70;99.90;10.50;97535.00;;;;5024955;28;81910;-62
2022/05/14 00:33:46;;;;;;;7.25;2.03;;;8.70;99.90;10.50;97547.00;;;;5041076;28;82720;-58
2022/05/14 00:36:14;;;;;;;5.38;1.88;;;8.70;99.90;10.50;97539.00;;;;5024495;28;82414;-60
2022/05/14 00:38:41;;;;;;;6.97;1.90;;;8.70;99.90;10.50;97536.00;;;;5024468;28;82825;-60
2022/05/14 00:41:09;;;;;;;6.75;2.10;;;8.70;99.90;10.40;97532.00;;;;5023870;28;82182;-61
2022/05/14 00:43:50;;;;;;;6.30;2.00;;;8.60;99.90;10.20;97534.00;;;;5024524;28;83404;-62
2022/05/14 00:46:59;;;;;;;5.90;1.88;;;8.50;99.90;10.30;97533.00;;;;5023544;28;83257;-60
2022/05/14 00:49:28;;;;;;;6.05;1.80;;;8.50;99.90;10.40;97533.00;;;;5006701;28;82155;-61
2022/05/14 00:51:54;;;;;;;8.77;2.45;;;8.50;99.90;10.20;97532.00;;;;5005905;28;82013;-59
2022/05/14 00:54:32;;;;;;;5.90;1.65;;;8.50;99.90;10.30;97522.00;;;;5005767;28;82066;-59
2022/05/14 00:57:05;;;;;;;6.40;2.00;;;8.50;99.90;10.30;97521.00;;;;5024569;28;82530;-60
2022/05/14 00:59:31;;;;;;;5.30;2.15;;;8.50;99.90;10.30;97522.00;;;;5011629;28;81984;-61
2022/05/14 01:01:59;;;;;;;5.93;1.90;;;8.50;99.90;10.30;97521.00;;;;5022835;28;82415;-61
2022/05/14 01:04:26;;;;;;;6.95;2.10;;;8.40;99.90;10.20;97527.00;;;;5023522;28;82005;-62
2022/05/14 01:07:01;;;;;;;6.60;1.98;;;8.40;99.90;10.20;97521.00;;;;5023201;28;81986;-61
2022/05/14 01:09:28;;;;;;;5.45;1.75;;;8.40;99.90;10.10;97518.00;;;;5021100;28;85649;-59
2022/05/14 01:11:55;;;;;;;7.68;1.98;;;8.30;99.90;10.10;97520.00;;;;5028690;28;82351;-59
2022/05/14 01:14:22;;;;;;;11.75;2.05;;;8.30;99.90;10.10;97516.00;;;;5026915;28;83744;-59
2022/05/14 01:16:52;;;;;;;6.93;1.90;;;8.30;99.90;10.10;97514.00;;;;5044732;27;82209;-63
2022/05/14 01:19:19;;;;;;;4.75;1.90;;;8.40;99.90;10.20;97505.00;;;;5060990;27;81976;-62
2022/05/14 01:22:19;;;;;;;7.50;2.03;;;8.40;99.90;10.20;97528.00;;;;5009081;28;82623;-62
2022/05/14 01:28:08;;;;;;;7.72;1.77;;;8.40;99.90;10.30;97516.00;;;;5024903;28;82196;-62
2022/05/14 01:31:04;;;;;;;6.45;2.53;;;8.50;99.90;10.30;97510.00;;;;5023170;28;81924;-61
2022/05/14 01:33:34;;;;;;;10.20;2.22;;;8.40;99.90;10.20;97510.00;;;;5004459;28;82503;-61
2022/05/14 01:36:06;;;;;;;6.50;2.28;;;8.40;99.90;10.30;97504.00;;;;5023326;28;83442;-59
2022/05/14 01:38:33;;;;;;;5.00;1.73;;;8.40;99.90;10.40;97521.00;;;;5023120;28;83115;-59
2022/05/14 01:40:59;;;;;;;6.03;2.10;;;8.40;99.90;10.30;97517.00;;;;5040250;28;82187;-60
2022/05/14 01:43:29;;;;;;;8.20;2.67;;;8.40;99.90;10.30;97513.00;;;;5039514;28;82067;-60
2022/05/14 01:45:56;;;;;;;6.15;1.98;;;8.40;99.90;10.30;97515.00;;;;5021920;28;81880;-60
2022/05/14 01:48:23;;;;;;;8.40;2.20;;;8.40;99.90;10.30;97504.00;;;;5023167;28;82364;-59
2022/05/14 01:50:50;;;;;;;6.45;2.05;;;8.40;99.90;10.30;97518.00;;;;5022169;28;82340;-59
2022/05/14 01:53:18;;;;;;;6.35;1.85;;;8.40;99.90;10.40;97503.00;;;;5021465;28;83365;-61
2022/05/14 01:55:44;;;;;;;8.65;2.45;;;8.50;99.90;10.40;97527.00;;;;5022243;28;83592;-59
2022/05/14 02:00:59;;;;;;;6.60;2.13;;;8.50;99.90;10.50;97511.00;;;;5044875;27;82976;-60
2022/05/14 02:03:26;;;;;;;9.60;2.22;;;8.60;99.90;10.50;97504.00;;;;5022068;28;82528;-59
2022/05/14 02:05:52;;;;;;;5.22;1.90;;;8.60;99.90;10.50;97513.00;;;;5022663;28;83046;-61
2022/05/14 02:08:19;;;;;;;5.07;2.00;;;8.70;99.90;10.60;97511.00;;;;5022181;28;82083;-61
2022/05/14 02:10:45;;;;;;;6.95;2.13;;;8.70;99.90;10.70;97502.00;;;;5022634;28;82432;-61
2022/05/14 02:13:13;;;;;;;6.95;2.08;;;8.80;99.90;10.70;97503.00;;;;5022116;28;82323;-61
2022/05/14 02:15:40;;;;;;;6.20;1.70;;;8.80;99.90;10.80;97510.00;;;;5021849;28;82766;-59
2022/05/14 02:18:06;;;;;;;5.80;1.75;;;8.80;99.90;10.90;97512.00;;;;5002337;28;82221;-59
2022/05/14 02:20:33;;;;;;;8.63;2.20;;;8.90;99.90;10.70;97517.00;;;;5023824;28;81950;-59
2022/05/14 02:22:59;;;;;;;5.82;2.10;;;9.00;99.90;11.00;97523.00;;;;5022381;28;82158;-59
2022/05/14 02:25:26;;;;;;;8.75;2.75;;;9.10;99.90;11.30;97512.00;;;;5022866;28;83561;-59
2022/05/14 02:27:52;;;;;;;8.45;2.20;;;9.30;99.90;11.80;97516.00;;;;5022425;28;82171;-59
2022/05/14 02:30:18;;;;;;;7.43;1.80;;;9.70;99.90;12.10;97516.00;;;;5022585;28;82292;-59
2022/05/14 02:32:45;;;;;;;4.63;2.22;;;10.00;99.90;12.40;97530.00;;;;5022138;28;82160;-59
2022/05/14 02:35:11;;;;;;;3.65;1.50;;;10.30;99.90;12.50;97511.00;;;;5022924;28;82679;-59
2022/05/14 02:37:37;;;;;;;6.60;2.13;;;10.40;99.90;12.20;97523.00;;;;5022134;28;82205;-59
2022/05/14 02:40:05;;;;;;;6.07;1.50;;;10.50;99.90;12.80;97526.00;;;;5023023;28;81930;-59
2022/05/14 02:42:31;;;;;;;5.70;1.63;;;10.60;99.90;12.90;97514.00;;;;5023438;28;82247;-59
2022/05/14 02:44:57;;;;;;;6.68;1.85;;;10.70;99.90;12.70;97531.00;;;;5022669;28;83735;-60
2022/05/14 02:47:24;;;;;;;5.30;1.83;;;10.80;99.90;13.00;97538.00;;;;5021321;28;82319;-60
2022/05/14 02:49:50;;;;;;;7.57;1.63;;;10.90;99.90;13.10;97529.00;;;;5022084;28;82875;-59
2022/05/14 02:52:16;;;;;;;3.53;1.30;;;10.90;99.90;12.90;97523.00;;;;5039154;27;83648;-60
2022/05/14 02:54:43;;;;;;;7.15;1.65;;;10.80;99.90;13.10;97541.00;;;;5038810;28;82498;-60
2022/05/14 02:57:09;;;;;;;5.07;1.83;;;10.90;99.90;13.00;97539.00;;;;5021914;28;82400;-60
2022/05/14 02:59:35;;;;;;;6.30;1.50;;;10.80;99.90;12.80;97529.00;;;;5026903;28;82032;-59
2022/05/14 03:02:03;;;;;;;6.18;1.90;;;10.80;99.90;12.90;97528.00;;;;5020862;28;82687;-58
2022/05/14 03:04:37;;;;;;;7.57;1.73;;;11.00;99.90;13.20;97535.00;;;;5021913;28;83043;-61
2022/05/14 03:07:10;;;;;;;4.75;1.40;;;11.00;99.90;13.50;97533.00;;;;5023027;28;82786;-60
2022/05/14 03:09:39;;;;;;;6.60;1.58;;;11.20;99.90;13.40;97531.00;;;;5020503;28;82110;-60
2022/05/14 03:12:09;;;;;;;3.83;1.63;;;11.10;99.90;13.30;97531.00;;;;5032205;28;82261;-59
2022/05/14 03:14:35;;;;;;;5.30;1.50;;;11.10;99.90;13.20;97535.00;;;;5028478;27;83607;-59
2022/05/14 03:17:03;;;;;;;6.30;1.80;;;11.00;99.90;13.10;97542.00;;;;5025236;28;81843;-60
2022/05/14 03:19:29;;;;;;;6.97;1.60;;;11.10;99.90;13.30;97531.00;;;;5026215;28;82073;-61
2022/05/14 03:21:55;;;;;;;7.22;1.65;;;11.00;99.90;13.20;97536.00;;;;5025313;28;82408;-59
2022/05/14 03:24:22;;;;;;;6.05;1.85;;;11.10;99.90;13.50;97533.00;;;;5025983;28;83420;-59
2022/05/14 03:26:49;;;;;;;6.38;1.83;;;11.30;99.90;13.60;97539.00;;;;5024860;28;82683;-60
2022/05/14 03:29:15;;;;;;;4.28;1.50;;;11.50;99.90;13.90;97533.00;;;;5008267;28;82268;-62
2022/05/14 03:31:42;;;;;;;4.43;1.83;;;11.80;99.90;14.30;97530.00;;;;5025086;28;84478;-61
2022/05/14 03:34:11;;;;;;;6.45;1.60;;;12.00;99.90;14.10;97543.00;;;;5025007;28;82471;-61
2022/05/14 03:36:40;;;;;;;11.45;2.03;;;11.90;99.90;14.00;97542.00;;;;5024556;28;83267;-64
2022/05/14 03:39:07;;;;;;;6.45;1.83;;;11.80;99.90;13.90;97545.00;;;;5023845;28;83277;-63
2022/05/14 03:41:35;;;;;;;8.52;1.73;;;11.80;99.90;13.70;97552.00;;;;5025779;28;84139;-64
2022/05/14 03:44:02;;;;;;;4.80;1.80;;;11.70;99.90;13.90;97544.00;;;;5007582;28;84283;-63
2022/05/14 03:46:29;;;;;;;6.30;1.80;;;11.80;99.90;13.60;97547.00;;;;5023864;28;82684;-63
2022/05/14 03:48:55;;;;;;;6.55;1.77;;;11.70;99.90;13.80;97543.00;;;;5025677;28;82143;-65
2022/05/14 03:51:22;;;;;;;4.45;1.25;;;11.70;99.90;13.80;97547.00;;;;5023981;28;82265;-60
2022/05/14 03:53:48;;;;;;;4.00;1.52;;;11.80;99.90;14.40;97542.00;;;;5025767;28;83113;-62
2022/05/14 03:56:15;;;;;;;6.70;1.58;;;12.10;99.90;14.70;97550.00;;;;5008186;28;85658;-59
2022/05/14 03:58:42;;;;;;;3.42;1.48;;;12.40;99.90;14.70;97536.00;;;;5011730;28;82317;-63
2022/05/14 04:01:08;;;;;;;6.60;1.38;;;12.40;99.90;14.60;97546.00;;;;5008590;28;83220;-62
2022/05/14 04:03:35;;;;;;;5.90;1.40;;;12.40;99.90;14.60;97540.00;;;;5024735;28;84541;-60
2022/05/14 04:06:04;;;;;;;7.40;1.70;;;12.40;99.90;14.90;97549.00;;;;5041334;28;82946;-60
2022/05/14 04:08:32;;;;;;;3.63;1.30;;;12.60;99.90;14.50;97540.00;;;;5023712;28;81960;-64
2022/05/14 04:10:58;;;;;;;7.38;1.80;;;12.60;99.90;14.60;97550.00;;;;5025229;28;82296;-60
2022/05/14 04:13:26;;;;;;;5.35;1.33;;;12.60;99.90;15.20;97536.00;;;;5042554;28;84736;-63
2022/05/14 04:15:53;;;;;;;8.20;1.65;;;13.00;99.90;15.50;97546.00;;;;5044794;28;83328;-62
2022/05/14 04:18:24;;;;;;;6.60;1.40;;;13.40;99.90;15.60;97544.00;;;;5039254;28;82274;-62
2022/05/14 04:20:53;;;;;;;;;;;13.40;99.90;15.80;97541.00;;;;5025466;28;82376;-64
2022/05/14 04:23:21;;;;;;;3.80;1.40;;;13.50;99.90;15.90;97542.00;;;;5024901;28;83524;-62
2022/05/14 04:25:52;;;;;;;3.08;1.20;;;13.60;99.90;16.20;97550.00;;;;5024313;28;84173;-61
2022/05/14 04:28:21;;;;;;;4.28;1.35;;;13.90;99.90;16.10;97549.00;;;;5020101;28;82998;-62
2022/05/14 04:30:48;;;;;;;5.70;1.40;;;13.80;99.90;15.80;97532.00;;;;5012168;28;82793;-65
2022/05/14 04:33:17;;;;;;;3.78;1.17;;;13.80;99.90;15.80;97549.00;;;;5024484;28;82460;-62
2022/05/14 04:35:44;;;;;;;7.45;1.30;;;13.50;99.90;15.60;97537.00;;;;5024880;28;82635;-65
2022/05/14 04:38:12;;;;;;;5.30;1.55;;;13.40;99.90;15.40;97542.00;;;;5040617;28;81998;-65
2022/05/14 04:40:38;;;;;;;4.22;1.60;;;13.20;99.90;14.60;97539.00;;;;5041024;28;82302;-61
2022/05/14 04:43:10;;;;;;;5.57;1.52;;;12.90;99.90;15.00;97541.00;;;;5024019;28;84398;-62
2022/05/14 04:45:38;;;;;;;5.88;1.33;;;12.90;99.90;14.80;97540.00;;;;5040967;28;82639;-63
2022/05/14 04:48:06;;;;;;;4.13;1.17;;;13.00;99.90;15.60;97532.00;;;;5023517;28;83865;-64
2022/05/14 04:50:33;;;;;;;6.05;1.35;;;13.40;99.90;16.00;97535.00;;;;5023012;28;83334;-64
2022/05/14 04:53:00;;;;;;;6.30;1.25;;;13.80;99.90;15.90;97531.00;;;;5022660;28;84888;-62
2022/05/14 04:55:27;;;;;;;3.13;1.27;;;13.80;99.90;16.10;97532.00;;;;4990631;28;86074;-63
2022/05/14 04:57:54;;;;;;;2.92;1.20;;;13.90;99.90;16.00;97541.00;;;;4990631;28;83132;-63
2022/05/14 05:00:22;;;;;;;3.80;1.02;;;14.00;99.90;15.90;97546.00;;;;5010019;28;84139;-61
2022/05/14 05:05:34;;;;;;;1.88;1.20;;;14.20;99.90;16.10;97536.00;;;;5023242;28;84195;-61
2022/05/14 05:08:02;;;;;;;5.80;1.52;;;14.20;99.90;15.50;97533.00;;;;5023372;28;82057;-60
2022/05/14 05:10:29;;;;;;;6.10;1.15;;;13.70;99.90;15.10;97537.00;;;;5022923;28;82154;-60
2022/05/14 05:13:01;;;;;;;3.05;1.15;;;13.40;99.90;15.60;97534.00;;;;5024293;28;83577;-64
2022/05/14 05:15:30;;;;;;;4.47;1.58;;;13.50;99.90;15.70;97540.00;;;;5023214;28;83037;-62
2022/05/14 05:17:58;;;;;;;5.03;1.20;;;13.60;99.90;15.70;97541.00;;;;5024152;28;83333;-62
2022/05/14 05:20:25;;;;;;;2.75;1.00;;;13.60;99.90;15.50;97541.00;;;;5005928;28;82621;-62
2022/05/14 05:22:52;;;;;;;5.20;0.93;;;13.60;99.90;15.70;97533.00;;;;5023293;28;83742;-63
2022/05/14 05:25:21;;;;;;;5.05;1.33;;;13.70;99.90;16.00;97533.00;;;;5039543;28;82418;-62
2022/05/14 05:27:47;;;;;;;3.10;1.30;;;13.90;99.90;16.40;97533.00;;;;5006937;28;81841;-62
2022/05/14 05:30:14;;;;;;;6.55;1.30;;;14.10;99.90;16.10;97529.00;;;;5022603;28;83815;-62
2022/05/14 05:32:41;;;;;;;5.60;1.15;;;13.90;99.90;16.00;97527.00;;;;4989277;28;84995;-62
2022/05/14 05:35:08;;;;;;;3.88;1.10;;;13.90;99.90;15.40;97533.00;;;;5040103;28;85747;-62
2022/05/14 05:37:34;;;;;;;3.75;1.35;;;13.70;99.90;15.80;97530.00;;;;5024164;28;81872;-63
2022/05/14 05:40:00;;;;;;;4.72;1.05;;;13.70;99.90;15.40;97530.00;;;;5023679;28;82788;-61
2022/05/14 05:42:27;;;;;;;3.85;1.20;;;13.50;99.90;15.50;97525.00;;;;5023351;28;83395;-60
2022/05/14 05:44:54;;;;;;;5.20;0.98;;;13.60;99.90;16.00;97522.00;;;;5023700;28;82108;-61
2022/05/14 05:47:20;;;;;;;3.28;1.15;;;13.90;99.90;15.80;97526.00;;;;5023300;28;81905;-60
2022/05/14 05:49:46;;;;;;;6.10;1.35;;;13.90;99.90;15.70;97533.00;;;;5023377;28;82436;-60
2022/05/14 05:52:12;;;;;;;3.25;1.05;;;13.80;99.90;15.90;97529.00;;;;5021386;28;83001;-60
2022/05/14 05:57:37;;;;;;;2.17;1.00;;;13.90;99.90;15.70;97537.00;;;;5022232;28;82842;-59
2022/05/14 06:00:15;;;;;;;4.00;1.23;;;14.00;99.90;16.60;97523.00;;;;5030311;28;83252;-60
2022/05/14 06:02:41;;;;;;;5.85;1.15;;;14.50;99.90;17.40;97532.00;;;;5016847;28;82185;-61
2022/05/14 06:05:08;;;;;;;4.38;1.00;;;15.00;99.90;16.90;97531.00;;;;5023607;28;82257;-60
2022/05/14 06:07:36;;;;;;;5.85;1.10;;;14.80;99.90;17.00;97517.00;;;;5022742;28;82874;-59
2022/05/14 06:10:05;;;;;;;5.53;1.33;;;14.70;99.90;17.10;97529.00;;;;5038833;28;82292;-60
2022/05/14 06:12:31;;;;;;;5.32;1.10;;;14.90;99.90;17.30;97527.00;;;;5022983;28;82470;-60
2022/05/14 06:14:57;;;;;;;3.85;1.13;;;15.10;99.90;16.10;97543.00;;;;5023585;28;82408;-59
2022/05/14 06:17:24;;;;;;;2.88;1.20;;;14.30;99.90;16.20;97527.00;;;;5023544;28;81876;-61
2022/05/14 06:19:50;;;;;;;4.95;1.08;;;14.20;99.90;15.90;97526.00;;;;5022739;28;83287;-59
2022/05/14 06:22:16;;;;;;;6.95;0.80;;;14.10;99.90;15.60;97524.00;;;;5022074;28;82483;-59
2022/05/14 06:24:42;;;;;;;4.75;1.00;;;13.90;99.90;16.00;97522.00;;;;5023367;28;82316;-59
2022/05/14 06:27:09;;;;;;;4.53;1.10;;;14.00;99.90;15.50;97513.00;;;;5023533;28;81765;-60
2022/05/14 06:29:35;;;;;;;5.82;1.30;;;13.80;99.90;15.90;97512.00;;;;5023069;28;82425;-60
2022/05/14 06:32:01;;;;;;;3.25;0.90;;;14.00;99.90;15.90;97510.00;;;;5021897;28;83310;-59
2022/05/14 06:34:27;;;;;;;6.28;0.90;;;14.10;99.90;15.70;97504.00;;;;5022806;28;84474;-60
2022/05/14 06:36:54;;;;;;;6.32;1.23;;;13.90;99.90;15.60;97518.00;;;;5022923;28;81907;-59
2022/05/14 06:39:20;;;;;;;6.50;1.30;;;14.00;99.90;16.00;97500.00;;;;5022212;28;82387;-59
2022/05/14 06:41:47;;;;;;;3.58;1.10;;;14.20;99.90;16.00;97484.00;;;;5022236;28;82491;-61
2022/05/14 06:44:14;;;;;;;3.50;1.02;;;14.30;99.90;16.20;97500.00;;;;5016838;28;83594;-60
2022/05/14 06:46:40;;;;;;;4.70;1.10;;;14.40;99.90;16.30;97510.00;;;;5021565;28;82107;-60
2022/05/14 06:49:06;;;;;;;4.78;1.48;;;14.50;99.90;16.20;97504.00;;;;5023282;28;81505;-60
2022/05/14 06:51:34;;;;;;;4.05;0.93;;;14.40;99.90;16.30;97512.00;;;;5022594;28;82814;-60
2022/05/14 06:54:05;;;;;;;2.97;0.82;;;14.40;99.90;16.30;97500.00;;;;5021399;28;82006;-60
2022/05/14 06:56:34;;;;;;;5.22;1.00;;;14.50;99.90;16.30;97519.00;;;;5022255;28;82974;-62
2022/05/14 06:59:01;;;;;;;3.22;1.02;;;14.60;99.90;16.30;97512.00;;;;5024425;28;82876;-59
2022/05/14 07:01:29;;;;;;;4.60;1.00;;;14.50;99.90;16.10;97498.00;;;;5024028;27;83457;-59
2022/05/14 07:06:45;;;;;;;6.10;1.05;;;14.20;99.90;16.10;97501.00;;;;5022523;28;82174;-60
2022/05/14 07:09:15;;;;;;;3.60;0.90;;;14.40;99.90;16.40;97495.00;;;;5021708;28;82205;-60
2022/05/14 07:11:46;;;;;;;3.55;1.20;;;14.40;99.90;16.40;97491.00;;;;5022140;28;83429;-60
2022/05/14 07:14:16;;;;;;;3.70;1.00;;;14.30;99.90;16.40;97488.00;;;;5022585;28;83406;-59
2022/05/14 07:16:44;;;;;;;3.93;1.30;;;14.50;99.90;16.20;97495.00;;;;5022178;28;82202;-60
2022/05/14 07:19:11;;;;;;;2.55;1.00;;;14.50;99.90;16.50;97490.00;;;;5020959;28;82951;-60
2022/05/14 07:21:42;;;;;;;6.15;1.10;;;14.50;99.90;16.40;97484.00;;;;5020937;28;85000;-59
2022/05/14 07:24:15;;;;;;;5.38;1.10;;;14.50;99.90;16.20;97497.00;;;;5022602;28;83017;-59
2022/05/14 07:26:42;;;;;;;4.13;0.90;;;14.40;99.90;16.30;97510.00;;;;5022718;28;81968;-59
2022/05/14 07:29:13;;;;;;;3.97;1.00;;;14.30;99.90;16.20;97484.00;;;;5022434;28;82385;-60
2022/05/14 07:31:40;;;;;;;5.18;1.08;;;14.30;99.90;16.10;97481.00;;;;5021986;28;84522;-61
2022/05/14 07:34:07;;;;;;;5.97;1.67;;;14.40;99.90;16.40;97477.00;;;;5021932;28;82357;-60
2022/05/14 07:36:40;;;;;;;7.95;1.20;;;14.60;99.90;16.70;97495.00;;;;5021374;28;81982;-62
2022/05/14 07:39:07;;;;;;;4.97;1.27;;;14.80;99.90;16.50;97484.00;;;;5019459;28;83328;-58
2022/05/14 07:41:37;;;;;;;3.63;1.35;;;14.80;99.90;16.40;97496.00;;;;5016600;28;84804;-60
2022/05/14 07:44:06;;;;;;;3.05;1.00;;;14.60;99.90;16.70;97486.00;;;;5021755;28;83983;-60
2022/05/14 07:46:35;;;;;;;6.38;1.38;;;14.80;99.90;16.90;97492.00;;;;5019729;28;82907;-60
2022/05/14 07:49:05;;;;;;;7.40;1.08;;;15.00;99.90;17.50;97486.00;;;;5021146;28;82467;-60
2022/05/14 07:51:31;;;;;;;4.68;1.10;;;15.40;99.90;17.50;97490.00;;;;5022419;28;82995;-60
2022/05/14 07:53:57;;;;;;;3.67;1.10;;;15.40;99.90;17.30;97480.00;;;;5020589;27;83541;-60
2022/05/14 07:56:23;;;;;;;4.40;1.35;;;15.30;99.90;17.30;97476.00;;;;5040719;28;82053;-59
2022/05/14 07:58:50;;;;;;;3.60;1.30;;;15.30;99.90;17.50;97494.00;;;;5030220;28;82944;-60
2022/05/14 08:01:16;;;;;;;4.97;1.02;;;15.30;99.90;17.20;97473.00;;;;5028341;28;82519;-59
2022/05/14 08:03:43;;;;;;;5.05;1.45;;;15.50;99.90;17.60;97492.00;;;;5025288;28;82021;-59
2022/05/14 08:06:11;;;;;;;5.25;1.20;;;15.60;99.90;17.60;97469.00;;;;5024901;28;81925;-59
2022/05/14 08:08:37;;;;;;;5.32;1.27;;;15.70;99.90;17.30;97484.00;;;;5024938;28;83385;-61
2022/05/14 08:11:04;;;;;;;10.88;1.23;;;15.50;99.90;16.70;97494.00;;;;5040280;28;86129;-58
2022/05/14 08:13:34;;;;;;;4.25;1.33;;;15.10;99.90;16.50;97483.00;;;;5025090;28;84280;-59
2022/05/14 08:16:02;;;;;;;4.82;0.93;;;15.00;99.90;16.80;97486.00;;;;5024839;28;81964;-65
2022/05/14 08:18:30;;;;;;;4.13;0.95;;;15.10;99.90;16.60;97491.00;;;;5025274;28;83404;-61
2022/05/14 08:20:56;;;;;;;9.43;1.33;;;15.20;99.90;17.00;97480.00;;;;5024805;28;82631;-61
2022/05/14 08:26:08;;;;;;;7.18;1.10;;;15.10;99.90;16.40;97479.00;;;;5023762;28;82244;-62
2022/05/14 08:28:34;;;;;;;3.65;0.95;;;15.00;99.90;16.70;97476.00;;;;5024317;28;83526;-60
2022/05/14 08:31:01;;;;;;;5.38;0.90;;;15.20;99.90;17.00;97471.00;;;;5023655;28;85157;-59
2022/05/14 08:33:28;;;;;;;6.18;1.10;;;15.30;99.90;17.10;97470.00;;;;5024129;28;82304;-62
2022/05/14 08:35:55;;;;;;;6.80;0.90;;;15.20;99.90;17.00;97481.00;;;;5027345;28;83525;-61
2022/05/14 08:38:23;;;;;;;7.85;1.30;;;15.40;99.90;17.10;97462.00;;;;5023087;28;82424;-62
2022/05/14 08:40:56;;;;;;;4.22;1.08;;;15.40;99.90;17.20;97475.00;;;;5040026;28;81906;-62
2022/05/14 08:43:32;;;;;;;4.57;1.13;;;15.40;99.90;17.30;97495.00;;;;5023468;28;82713;-62
2022/05/14 08:45:59;;;;;;;5.38;1.33;;;;;17.00;97475.00;;;;5023240;28;81946;-61
2022/05/14 08:48:34;;;;;;;6.97;1.27;;;15.30;99.90;16.80;97477.00;;;;5024588;28;82177;-62
2022/05/14 08:51:06;;;;;;;5.15;1.17;;;15.30;99.90;17.00;97482.00;;;;5023823;28;82629;-61
2022/05/14 08:53:36;;;;;;;4.57;1.00;;;15.10;99.90;16.90;97484.00;;;;5023330;28;82400;-62
2022/05/14 08:56:23;;;;;;;2.65;1.10;;;14.90;99.90;16.60;97494.00;;;;5005981;28;83874;-60
2022/05/14 08:59:10;;;;;;;6.43;1.50;;;14.90;99.90;16.60;97492.00;;;;5026213;28;82845;-62
2022/05/14 09:01:42;;;;;;;4.82;1.00;;;14.70;99.90;16.50;97476.00;;;;5024999;28;83525;-65
2022/05/14 09:04:12;;;;;;;7.72;1.40;;;14.90;99.90;16.60;97491.00;;;;5024148;28;83474;-60
2022/05/14 09:06:41;;;;;;;4.80;1.00;;;14.70;99.90;16.20;97498.00;;;;5023416;28;82389;-61
2022/05/14 09:09:09;;;;;;;4.15;1.20;;;14.60;99.90;16.20;97498.00;;;;5023989;28;83371;-59
2022/05/14 09:11:59;;;;;;;3.03;0.98;;;14.60;99.90;16.40;97493.00;;;;5022262;28;83665;-58
2022/05/14 09:14:38;;;;;;;3.92;1.30;;;14.80;99.90;16.60;97492.00;;;;5023176;28;82142;-58
2022/05/14 09:17:20;;;;;;;2.83;1.00;;;14.70;99.90;16.40;97487.00;;;;5024131;28;82068;-59
2022/05/14 09:19:50;;;;;;;4.28;1.15;;;14.80;99.90;16.50;97493.00;;;;5016294;28;82379;-59
2022/05/14 09:22:32;;;;;;;3.22;1.20;;;14.80;99.90;16.60;97478.00;;;;5023411;28;83500;-58
2022/05/14 09:25:24;;;;;;;6.82;1.10;;;14.90;99.90;16.70;97461.00;;;;5004533;28;82486;-57
2022/05/14 09:28:05;;;;;;;7.07;1.90;;;14.90;99.90;16.30;97477.00;;;;5021943;28;83214;-58
2022/05/14 09:30:36;;;;;;;6.70;1.33;;;14.90;99.90;16.70;97477.00;;;;5022875;28;82963;-59
2022/05/14 09:33:04;;;;;;;3.70;1.02;;;14.90;99.90;16.70;97476.00;;;;5022615;28;82499;-58
2022/05/14 09:35:34;;;;;;;5.30;1.55;;;14.90;99.90;16.30;97474.00;;;;5023257;28;83264;-58
2022/05/14 09:38:21;;;;;;;6.47;1.58;;;14.90;99.90;16.30;97463.00;;;;5021664;28;82065;-60
2022/05/14 09:40:47;;;;;;;5.55;1.05;;;14.70;99.90;16.60;97463.00;;;;5022815;28;82569;-61
2022/05/14 09:43:17;;;;;;;6.82;1.40;;;15.00;99.90;16.80;97471.00;;;;5022808;28;84312;-59
2022/05/14 09:45:56;;;;;;;2.92;0.95;;;15.10;99.90;16.70;97462.00;;;;5023649;28;82536;-59
2022/05/14 09:48:35;;;;;;;6.05;1.60;;;15.10;99.90;16.50;97468.00;;;;5020473;28;82266;-61
2022/05/14 09:51:08;;;;;;;3.25;1.52;;;15.10;99.90;16.70;97464.00;;;;5004949;28;82223;-57
2022/05/14 09:56:12;;;;;;;5.97;1.13;;;15.30;99.90;17.20;97458.00;;;;5041462;28;81754;-60
2022/05/14 09:59:23;;;;;;;3.15;1.10;;;15.30;99.90;17.10;97448.00;;;;5020418;28;82079;-60
2022/05/14 10:02:11;;;;;;;3.10;1.13;;;15.30;99.90;16.90;97445.00;;;;5019356;28;81790;-61
2022/05/14 10:05:06;;;;;;;4.78;1.20;;;15.20;99.90;17.10;97449.00;;;;5018714;28;83476;-61
2022/05/14 10:07:53;;;;;;;5.78;1.15;;;15.40;99.90;17.10;97446.00;;;;5019665;28;82274;-60
2022/05/14 10:11:04;;;;;;;6.97;1.23;;;15.40;99.90;17.50;97445.00;;;;4995091;28;81635;-60
2022/05/14 10:13:53;;;;;;;1.88;0.98;;;15.70;99.90;17.80;97447.00;;;;5017357;28;81614;-61
2022/05/14 10:16:49;;;;;;;3.10;1.30;;;15.80;99.90;17.60;97442.00;;;;5017059;28;82122;-60
2022/05/14 10:19:46;;;;;;;5.45;1.50;;;16.00;99.90;18.30;97428.00;;;;5015849;28;82832;-61
2022/05/14 10:26:46;;;;;;;5.95;1.35;;;16.30;99.90;18.30;97424.00;;;;5019100;28;81621;-61
2022/05/14 10:29:45;;;;;;;4.40;1.27;;;16.40;99.90;18.50;97425.00;;;;5018465;28;82298;-61
2022/05/14 10:32:18;;;;;;;3.85;0.95;;;16.60;99.50;18.00;97427.00;;;;5018954;28;81892;-60
2022/05/14 10:35:00;;;;;;;3.63;1.10;;;16.30;99.00;18.10;97426.00;;;;5017875;28;81718;-60
2022/05/14 10:37:31;;;;;;;9.85;1.35;;;16.30;99.30;18.30;97413.00;;;;5018521;28;82061;-60
2022/05/14 10:40:14;;;;;;;4.93;0.95;;;16.50;99.20;18.60;97419.00;;;;5018859;28;83475;-58
2022/05/14 10:42:52;;;;;;;3.13;1.08;;;16.80;99.40;18.90;97422.00;;;;4999524;28;82784;-59
2022/05/14 10:45:48;;;;;;;6.05;1.10;;;17.00;98.20;18.50;97436.00;;;;5016599;28;81556;-59
2022/05/14 10:48:23;;;;;;;2.08;0.80;;;16.70;97.40;18.50;97411.00;;;;5018462;28;81699;-60
2022/05/14 10:50:49;;;;;;;6.68;1.40;;;16.70;97.40;18.20;97442.00;;;;5017748;28;82323;-57
2022/05/14 10:53:17;;;;;;;3.35;1.27;;;16.60;97.30;17.50;97436.00;;;;5017722;28;81903;-54
2022/05/14 10:55:58;;;;;;;3.90;1.45;;;16.20;96.40;17.80;97422.00;;;;5017089;28;82738;-58
2022/05/14 10:58:55;;;;;;;7.40;1.80;;;16.20;97.50;18.20;97425.00;;;;5019695;28;81622;-59
2022/05/14 11:01:53;;;;;;;6.10;1.65;;;16.40;96.90;18.50;97409.00;;;;5016435;28;82448;-57
2022/05/14 11:04:30;;;;;;;8.73;1.50;;;16.50;96.90;18.40;97409.00;;;;5017162;28;81634;-58
2022/05/14 11:07:16;;;;;;;3.20;1.25;;;16.60;95.90;18.80;97397.00;;;;5004580;28;82084;-60
2022/05/14 11:09:44;;;;;;;6.28;1.50;;;16.90;95.80;18.90;97400.00;;;;5002511;28;81613;-59
2022/05/14 11:12:19;;;;;;;7.15;1.88;;;16.90;94.90;18.70;97418.00;;;;5004561;28;83555;-56
2022/05/14 11:14:55;;;;;;;8.20;1.38;;;16.90;95.10;18.60;97428.00;;;;5003576;28;82757;-59
2022/05/14 11:17:34;;;;;;;5.07;1.02;;;16.80;93.40;17.80;97428.00;;;;5001989;28;81864;-60
2022/05/14 11:20:04;;;;;;;3.60;1.08;;;16.40;93.00;17.70;97441.00;;;;5000661;28;82002;-61
2022/05/14 11:22:39;;;;;;;3.95;1.27;;;16.20;94.30;17.70;97405.00;;;;5004364;28;81617;-57
2022/05/14 11:25:21;;;;;;;4.70;1.20;;;16.00;94.60;18.00;97420.00;;;;5001644;28;81841;-60
2022/05/14 11:27:53;;;;;;;3.65;1.15;;;16.10;94.30;17.60;97415.00;;;;5003465;28;82189;-59
2022/05/14 11:30:41;;;;;;;7.18;1.40;;;16.00;93.50;17.40;97408.00;;;;5002717;28;81563;-60
2022/05/14 11:33:28;;;;;;;2.83;1.23;;;15.80;94.70;17.70;97403.00;;;;5001909;28;83411;-62
2022/05/14 11:36:18;;;;;;;5.18;1.38;;;16.00;96.10;18.10;97402.00;;;;5002578;28;82029;-63
2022/05/14 11:39:03;;;;;;;3.22;1.20;;;16.10;96.20;18.20;97393.00;;;;5001700;28;82197;-60
2022/05/14 11:41:35;;;;;;;4.95;1.75;;;16.30;95.80;17.80;97422.00;;;;5003314;28;81930;-59